KOLF

L M Clayton Airport

Wolf Point, Montana, USA
METAR KOLF 190853Z AUTO 07011KT 10SM BKN085 07/04 A3011 RMK AO2 SLP199 T00720044 50003
Observed Flight Rules
Sep-19 @ 08:53 UTC (12 minutes ago) Visual Flight Rules
Wind Visibility Clouds
70° at 11 knots 10 miles
  • Broken at 8,500' AGL
Temperatures Readings
Current 7°C / 45°F
Dewpoint 4°C / 39°F
Humidity 81%
Altimeter 30.11" Hg
Pressure 1019.9 hPa
Elevation 604
METAR KOLF 190853Z AUTO 07011KT 10SM BKN085 07/04 A3011 RMK AO2 SLP199 T00720044 50003
Observed Flight Rules
Sep-19 @ 08:53 UTC
(12 minutes ago)
VFR
Wind Visibility
70° at 11 knots 10 miles
Clouds
  • Broken at 8,500' AGL
Temperature Dewpoint
7°C / 45°F 4°C / 39°F
Humidity Altimeter Pressure
81% 30.11" Hg 1019.9 hPa